sensor_id;sensor_type;location;lat;lon;timestamp;pressure;altitude;pressure_sealevel;temperature;humidity
7105;BME280;3594;42.152;24.714;2022-11-15T00:02:00;-23975.59;;;5.69;nan
7105;BME280;3594;42.152;24.714;2022-11-15T00:04:25;-23976.47;;;5.72;nan
7105;BME280;3594;42.152;24.714;2022-11-15T00:06:50;-23968.34;;;5.43;nan
7105;BME280;3594;42.152;24.714;2022-11-15T00:09:16;-23970.78;;;5.52;nan
7105;BME280;3594;42.152;24.714;2022-11-15T00:11:41;-23963.94;;;5.27;nan
7105;BME280;3594;42.152;24.714;2022-11-15T00:14:06;-23962.09;;;5.21;nan
7105;BME280;3594;42.152;24.714;2022-11-15T00:16:32;-23969.50;;;5.47;nan
7105;BME280;3594;42.152;24.714;2022-11-15T00:18:57;-23959.13;;;5.10;nan
7105;BME280;3594;42.152;24.714;2022-11-15T00:21:23;-23956.56;;;5.01;nan
7105;BME280;3594;42.152;24.714;2022-11-15T00:23:48;-23955.13;;;4.96;nan
7105;BME280;3594;42.152;24.714;2022-11-15T00:26:14;-23967.94;;;5.42;nan
7105;BME280;3594;42.152;24.714;2022-11-15T00:28:41;-23957.97;;;5.06;nan
7105;BME280;3594;42.152;24.714;2022-11-15T00:31:09;-23968.63;;;5.44;nan
7105;BME280;3594;42.152;24.714;2022-11-15T00:33:36;-23966.94;;;5.38;nan
7105;BME280;3594;42.152;24.714;2022-11-15T00:36:03;-23959.13;;;5.10;nan
7105;BME280;3594;42.152;24.714;2022-11-15T00:38:38;-23963.94;;;5.27;nan
7105;BME280;3594;42.152;24.714;2022-11-15T00:41:05;-23963.09;;;5.24;nan
7105;BME280;3594;42.152;24.714;2022-11-15T00:43:31;-23971.06;;;5.53;nan
7105;BME280;3594;42.152;24.714;2022-11-15T00:45:56;-23972.19;;;5.57;nan
7105;BME280;3594;42.152;24.714;2022-11-15T00:48:22;-23964.22;;;5.28;nan
7105;BME280;3594;42.152;24.714;2022-11-15T00:50:48;-23961.38;;;5.18;nan
7105;BME280;3594;42.152;24.714;2022-11-15T00:53:14;-23963.53;;;5.26;nan
7105;BME280;3594;42.152;24.714;2022-11-15T00:55:39;-23973.34;;;5.61;nan
7105;BME280;3594;42.152;24.714;2022-11-15T00:58:05;-23966.78;;;5.38;nan
7105;BME280;3594;42.152;24.714;2022-11-15T01:00:30;-23963.25;;;5.25;nan
7105;BME280;3594;42.152;24.714;2022-11-15T01:02:55;-23974.47;;;5.65;nan
7105;BME280;3594;42.152;24.714;2022-11-15T01:05:22;-23975.59;;;5.69;nan
7105;BME280;3594;42.152;24.714;2022-11-15T01:07:51;-23981.44;;;5.90;nan
7105;BME280;3594;42.152;24.714;2022-11-15T01:10:16;-23972.34;;;5.57;nan
7105;BME280;3594;42.152;24.714;2022-11-15T01:12:42;-23981.56;;;5.90;nan
7105;BME280;3594;42.152;24.714;2022-11-15T01:15:07;-23972.19;;;5.57;nan
7105;BME280;3594;42.152;24.714;2022-11-15T01:17:33;-23975.03;;;5.67;nan
7105;BME280;3594;42.152;24.714;2022-11-15T01:19:58;-23977.44;;;5.75;nan
7105;BME280;3594;42.152;24.714;2022-11-15T01:22:24;-23985.56;;;6.04;nan
7105;BME280;3594;42.152;24.714;2022-11-15T01:24:50;-23974.47;;;5.65;nan
7105;BME280;3594;42.152;24.714;2022-11-15T01:27:16;-23978.16;;;5.78;nan
7105;BME280;3594;42.152;24.714;2022-11-15T01:29:41;-23977.16;;;5.74;nan
7105;BME280;3594;42.152;24.714;2022-11-15T01:32:07;-23985.28;;;6.03;nan
7105;BME280;3594;42.152;24.714;2022-11-15T01:34:32;-23982.00;;;5.92;nan
7105;BME280;3594;42.152;24.714;2022-11-15T01:36:58;-23993.50;;;6.33;nan
7105;BME280;3594;42.152;24.714;2022-11-15T01:39:23;-23991.22;;;6.25;nan
7105;BME280;3594;42.152;24.714;2022-11-15T01:41:49;-23984.00;;;5.99;nan
7105;BME280;3594;42.152;24.714;2022-11-15T01:47:05;-23985.28;;;6.03;nan
7105;BME280;3594;42.152;24.714;2022-11-15T01:49:33;-23993.78;;;6.34;nan
7105;BME280;3594;42.152;24.714;2022-11-15T01:52:03;-23988.53;;;6.15;nan
7105;BME280;3594;42.152;24.714;2022-11-15T01:54:30;-23991.81;;;6.27;nan
7105;BME280;3594;42.152;24.714;2022-11-15T01:56:59;-23983.84;;;5.98;nan
7105;BME280;3594;42.152;24.714;2022-11-15T01:59:26;-23993.38;;;6.32;nan
7105;BME280;3594;42.152;24.714;2022-11-15T02:01:52;-23992.66;;;6.30;nan
7105;BME280;3594;42.152;24.714;2022-11-15T02:04:23;-23994.50;;;6.36;nan
7105;BME280;3594;42.152;24.714;2022-11-15T02:06:50;-23990.53;;;6.22;nan
7105;BME280;3594;42.152;24.714;2022-11-15T02:09:16;-23994.34;;;6.36;nan
7105;BME280;3594;42.152;24.714;2022-11-15T02:11:41;-23953.84;;;4.92;nan
7105;BME280;3594;42.152;24.714;2022-11-15T02:14:08;-23986.41;;;6.07;nan
7105;BME280;3594;42.152;24.714;2022-11-15T02:25:03;-23994.66;;;6.37;nan
7105;BME280;3594;42.152;24.714;2022-11-15T02:28:16;-23993.09;;;6.31;nan
7105;BME280;3594;42.152;24.714;2022-11-15T02:31:07;-23995.78;;;6.41;nan
7105;BME280;3594;42.152;24.714;2022-11-15T02:39:35;-23984.41;;;6.00;nan
7105;BME280;3594;42.152;24.714;2022-11-15T02:42:09;-23990.09;;;6.20;nan
7105;BME280;3594;42.152;24.714;2022-11-15T02:44:57;-23988.13;;;6.13;nan
7105;BME280;3594;42.152;24.714;2022-11-15T02:47:28;-23996.63;;;6.44;nan
7105;BME280;3594;42.152;24.714;2022-11-15T02:49:58;-23999.31;;;6.53;nan
7105;BME280;3594;42.152;24.714;2022-11-15T02:52:25;-23990.09;;;6.20;nan
7105;BME280;3594;42.152;24.714;2022-11-15T02:54:55;-23995.34;;;6.39;nan
7105;BME280;3594;42.152;24.714;2022-11-15T02:57:46;-23992.50;;;6.29;nan
7105;BME280;3594;42.152;24.714;2022-11-15T03:00:18;-23992.22;;;6.28;nan
7105;BME280;3594;42.152;24.714;2022-11-15T03:05:44;-23984.41;;;6.00;nan
7105;BME280;3594;42.152;24.714;2022-11-15T03:16:26;-23983.00;;;5.95;nan
7105;BME280;3594;42.152;24.714;2022-11-15T03:18:58;-23960.25;;;5.14;nan
7105;BME280;3594;42.152;24.714;2022-11-15T03:21:28;-23980.44;;;5.86;nan
7105;BME280;3594;42.152;24.714;2022-11-15T03:23:58;-23992.94;;;6.31;nan
7105;BME280;3594;42.152;24.714;2022-11-15T03:26:25;-23982.00;;;5.92;nan
7105;BME280;3594;42.152;24.714;2022-11-15T03:28:59;-23993.22;;;6.32;nan
7105;BME280;3594;42.152;24.714;2022-11-15T03:31:29;-23983.00;;;5.95;nan
7105;BME280;3594;42.152;24.714;2022-11-15T03:34:23;-23987.81;;;6.12;nan
7105;BME280;3594;42.152;24.714;2022-11-15T03:36:51;-23981.28;;;5.89;nan
7105;BME280;3594;42.152;24.714;2022-11-15T03:39:18;-23988.53;;;6.15;nan
7105;BME280;3594;42.152;24.714;2022-11-15T03:44:52;-23996.63;;;6.44;nan
7105;BME280;3594;42.152;24.714;2022-11-15T03:47:37;-23996.91;;;6.45;nan
7105;BME280;3594;42.152;24.714;2022-11-15T03:50:13;-23989.81;;;6.19;nan
7105;BME280;3594;42.152;24.714;2022-11-15T03:52:41;-23983.56;;;5.97;nan
7105;BME280;3594;42.152;24.714;2022-11-15T03:55:10;-23995.06;;;6.38;nan
7105;BME280;3594;42.152;24.714;2022-11-15T03:57:36;-23984.69;;;6.01;nan
7105;BME280;3594;42.152;24.714;2022-11-15T04:00:03;-23981.56;;;5.90;nan
7105;BME280;3594;42.152;24.714;2022-11-15T04:02:29;-23984.97;;;6.02;nan
7105;BME280;3594;42.152;24.714;2022-11-15T04:04:54;-23980.16;;;5.85;nan
7105;BME280;3594;42.152;24.714;2022-11-15T04:07:19;-23989.25;;;6.17;nan
7105;BME280;3594;42.152;24.714;2022-11-15T04:09:45;-23989.81;;;6.19;nan
7105;BME280;3594;42.152;24.714;2022-11-15T04:12:33;-23989.69;;;6.19;nan
7105;BME280;3594;42.152;24.714;2022-11-15T04:14:59;-23988.41;;;6.14;nan
7105;BME280;3594;42.152;24.714;2022-11-15T04:17:48;-23986.41;;;6.07;nan
7105;BME280;3594;42.152;24.714;2022-11-15T04:20:15;-23986.41;;;6.07;nan
7105;BME280;3594;42.152;24.714;2022-11-15T04:23:01;-23980.44;;;5.86;nan
7105;BME280;3594;42.152;24.714;2022-11-15T04:25:45;-23986.25;;;6.07;nan
7105;BME280;3594;42.152;24.714;2022-11-15T04:28:14;-23961.09;;;5.17;nan
7105;BME280;3594;42.152;24.714;2022-11-15T04:30:39;-23987.81;;;6.12;nan
7105;BME280;3594;42.152;24.714;2022-11-15T04:33:05;-23986.84;;;6.09;nan
7105;BME280;3594;42.152;24.714;2022-11-15T04:35:30;-23984.84;;;6.02;nan
7105;BME280;3594;42.152;24.714;2022-11-15T04:37:56;-23981.16;;;5.89;nan
7105;BME280;3594;42.152;24.714;2022-11-15T04:40:22;-23994.06;;;6.35;nan
7105;BME280;3594;42.152;24.714;2022-11-15T04:42:47;-23980.44;;;5.86;nan
7105;BME280;3594;42.152;24.714;2022-11-15T04:45:13;-23991.94;;;6.27;nan
7105;BME280;3594;42.152;24.714;2022-11-15T04:47:38;-23975.59;;;5.69;nan
7105;BME280;3594;42.152;24.714;2022-11-15T04:50:04;-23972.19;;;5.57;nan
7105;BME280;3594;42.152;24.714;2022-11-15T04:52:30;-23972.34;;;5.57;nan
7105;BME280;3594;42.152;24.714;2022-11-15T04:54:55;-23972.63;;;5.58;nan
7105;BME280;3594;42.152;24.714;2022-11-15T04:57:20;-23968.94;;;5.45;nan
7105;BME280;3594;42.152;24.714;2022-11-15T04:59:46;-23975.31;;;5.68;nan
7105;BME280;3594;42.152;24.714;2022-11-15T05:02:11;-23978.16;;;5.78;nan
7105;BME280;3594;42.152;24.714;2022-11-15T05:04:37;-23975.03;;;5.67;nan
7105;BME280;3594;42.152;24.714;2022-11-15T05:07:02;-23974.47;;;5.65;nan
7105;BME280;3594;42.152;24.714;2022-11-15T05:09:31;-23983.84;;;5.98;nan
7105;BME280;3594;42.152;24.714;2022-11-15T05:11:56;-23971.75;;;5.55;nan
7105;BME280;3594;42.152;24.714;2022-11-15T05:14:22;-23981.72;;;5.91;nan
7105;BME280;3594;42.152;24.714;2022-11-15T05:16:47;-23983.00;;;5.95;nan
7105;BME280;3594;42.152;24.714;2022-11-15T05:19:13;-23975.47;;;5.68;nan
7105;BME280;3594;42.152;24.714;2022-11-15T05:21:38;-23974.31;;;5.64;nan
7105;BME280;3594;42.152;24.714;2022-11-15T05:24:04;-23987.81;;;6.12;nan
7105;BME280;3594;42.152;24.714;2022-11-15T05:26:30;-23977.44;;;5.75;nan
7105;BME280;3594;42.152;24.714;2022-11-15T05:28:57;-23984.41;;;6.00;nan
7105;BME280;3594;42.152;24.714;2022-11-15T05:31:23;-23973.63;;;5.62;nan
7105;BME280;3594;42.152;24.714;2022-11-15T05:33:50;-23977.03;;;5.74;nan
7105;BME280;3594;42.152;24.714;2022-11-15T05:36:37;-23985.97;;;6.06;nan
7105;BME280;3594;42.152;24.714;2022-11-15T05:39:05;-23981.28;;;5.89;nan
7105;BME280;3594;42.152;24.714;2022-11-15T05:41:35;-23987.97;;;6.13;nan
7105;BME280;3594;42.152;24.714;2022-11-15T05:44:05;-23991.22;;;6.25;nan
7105;BME280;3594;42.152;24.714;2022-11-15T05:46:33;-23984.84;;;6.02;nan
7105;BME280;3594;42.152;24.714;2022-11-15T05:48:59;-23994.34;;;6.36;nan
7105;BME280;3594;42.152;24.714;2022-11-15T05:51:26;-23989.25;;;6.17;nan
7105;BME280;3594;42.152;24.714;2022-11-15T05:53:55;-23999.63;;;6.54;nan
7105;BME280;3594;42.152;24.714;2022-11-15T05:56:22;-23991.81;;;6.27;nan
7105;BME280;3594;42.152;24.714;2022-11-15T05:58:47;-23994.78;;;6.37;nan
7105;BME280;3594;42.152;24.714;2022-11-15T06:01:13;-23996.78;;;6.44;nan
7105;BME280;3594;42.152;24.714;2022-11-15T06:03:38;-23997.75;;;6.48;nan
7105;BME280;3594;42.152;24.714;2022-11-15T06:06:04;-24002.16;;;6.63;nan
7105;BME280;3594;42.152;24.714;2022-11-15T06:08:29;-24001.75;;;6.62;nan
7105;BME280;3594;42.152;24.714;2022-11-15T06:10:55;-24003.44;;;6.68;nan
7105;BME280;3594;42.152;24.714;2022-11-15T06:13:20;-24014.50;;;7.07;nan
7105;BME280;3594;42.152;24.714;2022-11-15T06:15:45;-24012.66;;;7.01;nan
7105;BME280;3594;42.152;24.714;2022-11-15T06:18:11;-24021.47;;;7.32;nan
7105;BME280;3594;42.152;24.714;2022-11-15T06:20:36;-24013.66;;;7.04;nan
7105;BME280;3594;42.152;24.714;2022-11-15T06:23:04;-24026.56;;;7.50;nan
7105;BME280;3594;42.152;24.714;2022-11-15T06:25:30;-24026.28;;;7.49;nan
7105;BME280;3594;42.152;24.714;2022-11-15T06:27:57;-24020.19;;;7.28;nan
7105;BME280;3594;42.152;24.714;2022-11-15T06:30:24;-24034.06;;;7.77;nan
7105;BME280;3594;42.152;24.714;2022-11-15T06:32:50;-24038.03;;;7.91;nan
7105;BME280;3594;42.152;24.714;2022-11-15T06:35:16;-24042.72;;;8.08;nan
7105;BME280;3594;42.152;24.714;2022-11-15T06:37:42;-24037.63;;;7.90;nan
7105;BME280;3594;42.152;24.714;2022-11-15T06:40:09;-24050.78;;;8.37;nan
7105;BME280;3594;42.152;24.714;2022-11-15T06:42:35;-24054.59;;;8.51;nan
7105;BME280;3594;42.152;24.714;2022-11-15T06:45:02;-24052.47;;;8.43;nan
7105;BME280;3594;42.152;24.714;2022-11-15T06:47:28;-24049.09;;;8.31;nan
7105;BME280;3594;42.152;24.714;2022-11-15T06:49:53;-24058.00;;;8.63;nan
7105;BME280;3594;42.152;24.714;2022-11-15T06:52:18;-24059.56;;;8.68;nan
7105;BME280;3594;42.152;24.714;2022-11-15T06:54:45;-24061.53;;;8.75;nan
7105;BME280;3594;42.152;24.714;2022-11-15T06:57:11;-24049.22;;;8.31;nan
7105;BME280;3594;42.152;24.714;2022-11-15T06:59:36;-24028.25;;;7.57;nan
7105;BME280;3594;42.152;24.714;2022-11-15T07:02:02;-24059.00;;;8.66;nan
7105;BME280;3594;42.152;24.714;2022-11-15T07:04:28;-24064.66;;;8.86;nan
7105;BME280;3594;42.152;24.714;2022-11-15T07:06:53;-24056.59;;;8.58;nan
7105;BME280;3594;42.152;24.714;2022-11-15T07:09:19;-24064.09;;;8.84;nan
7105;BME280;3594;42.152;24.714;2022-11-15T07:11:44;-24053.47;;;8.47;nan
7105;BME280;3594;42.152;24.714;2022-11-15T07:14:10;-24064.50;;;8.86;nan
7105;BME280;3594;42.152;24.714;2022-11-15T07:16:36;-24062.09;;;8.77;nan
7105;BME280;3594;42.152;24.714;2022-11-15T07:19:02;-24063.09;;;8.81;nan
7105;BME280;3594;42.152;24.714;2022-11-15T07:21:27;-24060.56;;;8.72;nan
7105;BME280;3594;42.152;24.714;2022-11-15T07:23:53;-24073.56;;;9.18;nan
7105;BME280;3594;42.152;24.714;2022-11-15T07:26:18;-24073.84;;;9.19;nan
7105;BME280;3594;42.152;24.714;2022-11-15T07:28:44;-24051.34;;;8.39;nan
7105;BME280;3594;42.152;24.714;2022-11-15T07:31:09;-24076.66;;;9.29;nan
7105;BME280;3594;42.152;24.714;2022-11-15T07:33:35;-24073.84;;;9.19;nan
7105;BME280;3594;42.152;24.714;2022-11-15T07:36:02;-24084.44;;;9.57;nan
7105;BME280;3594;42.152;24.714;2022-11-15T07:38:28;-24082.75;;;9.51;nan
7105;BME280;3594;42.152;24.714;2022-11-15T07:40:59;-24087.28;;;9.67;nan
7105;BME280;3594;42.152;24.714;2022-11-15T07:43:25;-24071.59;;;9.11;nan
7105;BME280;3594;42.152;24.714;2022-11-15T07:45:52;-24081.19;;;9.46;nan
7105;BME280;3594;42.152;24.714;2022-11-15T07:48:18;-24086.00;;;9.63;nan
7105;BME280;3594;42.152;24.714;2022-11-15T07:50:43;-24100.53;;;10.15;nan
7105;BME280;3594;42.152;24.714;2022-11-15T07:53:09;-24101.41;;;10.18;nan
7105;BME280;3594;42.152;24.714;2022-11-15T07:55:36;-24097.03;;;10.02;nan
7105;BME280;3594;42.152;24.714;2022-11-15T07:58:03;-24108.88;;;10.45;nan
7105;BME280;3594;42.152;24.714;2022-11-15T08:00:29;-24109.59;;;10.47;nan
7105;BME280;3594;42.152;24.714;2022-11-15T08:03:06;-24111.56;;;10.54;nan
7105;BME280;3594;42.152;24.714;2022-11-15T08:05:32;-24120.44;;;10.86;nan
7105;BME280;3594;42.152;24.714;2022-11-15T08:07:58;-24122.41;;;10.93;nan
7105;BME280;3594;42.152;24.714;2022-11-15T08:10:24;-24119.88;;;10.84;nan
7105;BME280;3594;42.152;24.714;2022-11-15T08:13:00;-24126.09;;;11.06;nan
7105;BME280;3594;42.152;24.714;2022-11-15T08:15:26;-24126.09;;;11.06;nan
7105;BME280;3594;42.152;24.714;2022-11-15T08:18:00;-24129.59;;;11.19;nan
7105;BME280;3594;42.152;24.714;2022-11-15T08:20:27;-24122.41;;;10.93;nan
7105;BME280;3594;42.152;24.714;2022-11-15T08:23:00;-24125.66;;;11.05;nan
7105;BME280;3594;42.152;24.714;2022-11-15T08:25:27;-24137.22;;;11.46;nan
7105;BME280;3594;42.152;24.714;2022-11-15T08:27:53;-24136.22;;;11.43;nan
7105;BME280;3594;42.152;24.714;2022-11-15T08:30:19;-24129.88;;;11.20;nan
7105;BME280;3594;42.152;24.714;2022-11-15T08:32:45;-24137.22;;;11.46;nan
7105;BME280;3594;42.152;24.714;2022-11-15T08:35:10;-24086.84;;;9.66;nan
7105;BME280;3594;42.152;24.714;2022-11-15T08:37:36;-24141.88;;;11.63;nan
7105;BME280;3594;42.152;24.714;2022-11-15T08:40:03;-24140.31;;;11.58;nan
7105;BME280;3594;42.152;24.714;2022-11-15T08:42:28;-24142.28;;;11.65;nan
7105;BME280;3594;42.152;24.714;2022-11-15T08:44:53;-24140.47;;;11.58;nan
7105;BME280;3594;42.152;24.714;2022-11-15T08:47:19;-24145.25;;;11.75;nan
7105;BME280;3594;42.152;24.714;2022-11-15T08:49:44;-24146.66;;;11.80;nan
7105;BME280;3594;42.152;24.714;2022-11-15T08:52:09;-24141.44;;;11.62;nan
7105;BME280;3594;42.152;24.714;2022-11-15T08:54:35;-24133.56;;;11.33;nan
7105;BME280;3594;42.152;24.714;2022-11-15T08:57:00;-24141.03;;;11.60;nan
7105;BME280;3594;42.152;24.714;2022-11-15T08:59:25;-24146.25;;;11.79;nan
7105;BME280;3594;42.152;24.714;2022-11-15T09:01:51;-24156.94;;;12.17;nan
7105;BME280;3594;42.152;24.714;2022-11-15T09:04:16;-24155.25;;;12.11;nan
7105;BME280;3594;42.152;24.714;2022-11-15T09:06:42;-24158.63;;;12.23;nan
7105;BME280;3594;42.152;24.714;2022-11-15T09:09:07;-24162.00;;;12.35;nan
7105;BME280;3594;42.152;24.714;2022-11-15T09:11:33;-24177.34;;;12.91;nan
7105;BME280;3594;42.152;24.714;2022-11-15T09:13:58;-24170.31;;;12.65;nan
7105;BME280;3594;42.152;24.714;2022-11-15T09:16:23;-24179.72;;;12.99;nan
7105;BME280;3594;42.152;24.714;2022-11-15T09:18:49;-24167.78;;;12.56;nan
7105;BME280;3594;42.152;24.714;2022-11-15T09:21:14;-24170.03;;;12.64;nan
7105;BME280;3594;42.152;24.714;2022-11-15T09:23:39;-24174.38;;;12.80;nan
7105;BME280;3594;42.152;24.714;2022-11-15T09:26:05;-24161.72;;;12.34;nan
7105;BME280;3594;42.152;24.714;2022-11-15T09:28:32;-24156.78;;;12.17;nan
7105;BME280;3594;42.152;24.714;2022-11-15T09:30:59;-24144.84;;;11.74;nan
7105;BME280;3594;42.152;24.714;2022-11-15T09:33:26;-24154.81;;;12.10;nan
7105;BME280;3594;42.152;24.714;2022-11-15T09:35:51;-24151.72;;;11.99;nan
7105;BME280;3594;42.152;24.714;2022-11-15T09:38:17;-24139.19;;;11.53;nan
7105;BME280;3594;42.152;24.714;2022-11-15T09:40:43;-24174.81;;;12.81;nan
7105;BME280;3594;42.152;24.714;2022-11-15T09:50:51;-24177.19;;;12.90;nan
7105;BME280;3594;42.152;24.714;2022-11-15T09:53:26;-24172.00;;;12.71;nan
7105;BME280;3594;42.152;24.714;2022-11-15T09:56:03;-24170.16;;;12.65;nan
7105;BME280;3594;42.152;24.714;2022-11-15T09:58:43;-24168.47;;;12.59;nan
7105;BME280;3594;42.152;24.714;2022-11-15T10:04:16;-24169.31;;;12.62;nan
7105;BME280;3594;42.152;24.714;2022-11-15T10:07:19;-24171.28;;;12.69;nan
7105;BME280;3594;42.152;24.714;2022-11-15T10:12:29;-24172.13;;;12.72;nan
7105;BME280;3594;42.152;24.714;2022-11-15T10:15:12;-24173.53;;;12.77;nan
7105;BME280;3594;42.152;24.714;2022-11-15T10:25:15;-24195.88;;;13.57;nan
7105;BME280;3594;42.152;24.714;2022-11-15T10:27:41;-24200.09;;;13.73;nan
7105;BME280;3594;42.152;24.714;2022-11-15T10:30:14;-24210.91;;;14.11;nan
7105;BME280;3594;42.152;24.714;2022-11-15T10:32:42;-24206.84;;;13.97;nan
7105;BME280;3594;42.152;24.714;2022-11-15T10:35:37;-24211.47;;;14.13;nan
7105;BME280;3594;42.152;24.714;2022-11-15T10:38:08;-24217.06;;;14.34;nan
7105;BME280;3594;42.152;24.714;2022-11-15T10:40:34;-24204.03;;;13.87;nan
7105;BME280;3594;42.152;24.714;2022-11-15T10:45:34;-24203.88;;;13.86;nan
7105;BME280;3594;42.152;24.714;2022-11-15T10:50:39;-24196.44;;;13.59;nan
7105;BME280;3594;42.152;24.714;2022-11-15T10:53:15;-24205.00;;;13.90;nan
7105;BME280;3594;42.152;24.714;2022-11-15T10:55:46;-24201.38;;;13.77;nan
7105;BME280;3594;42.152;24.714;2022-11-15T11:00:54;-24206.41;;;13.95;nan
7105;BME280;3594;42.152;24.714;2022-11-15T11:03:29;-24219.03;;;14.41;nan
7105;BME280;3594;42.152;24.714;2022-11-15T11:06:13;-24219.03;;;14.41;nan
7105;BME280;3594;42.152;24.714;2022-11-15T11:08:40;-24240.78;;;15.19;nan
7105;BME280;3594;42.152;24.714;2022-11-15T11:11:06;-24237.97;;;15.09;nan
7105;BME280;3594;42.152;24.714;2022-11-15T11:13:38;-24255.06;;;15.71;nan
7105;BME280;3594;42.152;24.714;2022-11-15T11:24:10;-24254.06;;;15.67;nan
7105;BME280;3594;42.152;24.714;2022-11-15T11:29:24;-24241.88;;;15.23;nan
7105;BME280;3594;42.152;24.714;2022-11-15T11:32:15;-24233.34;;;14.92;nan
7105;BME280;3594;42.152;24.714;2022-11-15T11:37:43;-24196.31;;;13.59;nan
7105;BME280;3594;42.152;24.714;2022-11-15T11:40:19;-24209.91;;;14.08;nan
7105;BME280;3594;42.152;24.714;2022-11-15T11:50:34;-24226.91;;;14.69;nan
7105;BME280;3594;42.152;24.714;2022-11-15T11:55:37;-24224.50;;;14.61;nan
7105;BME280;3594;42.152;24.714;2022-11-15T11:58:36;-24229.41;;;14.78;nan
7105;BME280;3594;42.152;24.714;2022-11-15T12:01:16;-24241.88;;;15.23;nan
7105;BME280;3594;42.152;24.714;2022-11-15T12:03:49;-24218.47;;;14.39;nan
7105;BME280;3594;42.152;24.714;2022-11-15T12:08:53;-24221.16;;;14.48;nan
7105;BME280;3594;42.152;24.714;2022-11-15T12:14:28;-24210.19;;;14.09;nan
7105;BME280;3594;42.152;24.714;2022-11-15T12:16:57;-24207.69;;;14.00;nan
7105;BME280;3594;42.152;24.714;2022-11-15T12:19:23;-24190.69;;;13.39;nan
7105;BME280;3594;42.152;24.714;2022-11-15T12:22:04;-24199.69;;;13.71;nan
7105;BME280;3594;42.152;24.714;2022-11-15T12:24:37;-24185.63;;;13.20;nan
7105;BME280;3594;42.152;24.714;2022-11-15T12:27:12;-24201.78;;;13.79;nan
7105;BME280;3594;42.152;24.714;2022-11-15T12:29:48;-24186.34;;;13.23;nan
7105;BME280;3594;42.152;24.714;2022-11-15T12:32:32;-24186.91;;;13.25;nan
7105;BME280;3594;42.152;24.714;2022-11-15T12:35:00;-24182.53;;;13.09;nan
7105;BME280;3594;42.152;24.714;2022-11-15T12:43:32;-24186.91;;;13.25;nan
7105;BME280;3594;42.152;24.714;2022-11-15T12:45:52;-24176.91;;;12.89;nan
7105;BME280;3594;42.152;24.714;2022-11-15T12:58:57;-24180.84;;;13.03;nan
7105;BME280;3594;42.152;24.714;2022-11-15T13:28:00;-24176.78;;;12.89;nan
7105;BME280;3594;42.152;24.714;2022-11-15T13:30:29;-24174.09;;;12.79;nan
7105;BME280;3594;42.152;24.714;2022-11-15T13:32:56;-24173.25;;;12.76;nan
7105;BME280;3594;42.152;24.714;2022-11-15T13:35:25;-24167.91;;;12.57;nan
7105;BME280;3594;42.152;24.714;2022-11-15T13:37:54;-24169.88;;;12.64;nan
7105;BME280;3594;42.152;24.714;2022-11-15T13:40:21;-24173.41;;;12.76;nan
7105;BME280;3594;42.152;24.714;2022-11-15T13:42:47;-24174.38;;;12.80;nan
7105;BME280;3594;42.152;24.714;2022-11-15T13:45:15;-24166.78;;;12.53;nan
7105;BME280;3594;42.152;24.714;2022-11-15T13:47:40;-24169.19;;;12.61;nan
7105;BME280;3594;42.152;24.714;2022-11-15T13:50:10;-24175.94;;;12.85;nan
7105;BME280;3594;42.152;24.714;2022-11-15T13:52:36;-24163.84;;;12.42;nan
7105;BME280;3594;42.152;24.714;2022-11-15T13:55:20;-24174.66;;;12.81;nan
7105;BME280;3594;42.152;24.714;2022-11-15T13:57:58;-24167.34;;;12.55;nan
7105;BME280;3594;42.152;24.714;2022-11-15T14:03:12;-24162.00;;;12.35;nan
7105;BME280;3594;42.152;24.714;2022-11-15T14:05:40;-24158.78;;;12.24;nan
7105;BME280;3594;42.152;24.714;2022-11-15T14:10:43;-24153.56;;;12.05;nan
7105;BME280;3594;42.152;24.714;2022-11-15T14:13:29;-24157.22;;;12.18;nan
7105;BME280;3594;42.152;24.714;2022-11-15T14:16:12;-24153.13;;;12.04;nan
7105;BME280;3594;42.152;24.714;2022-11-15T14:18:45;-24151.31;;;11.97;nan
7105;BME280;3594;42.152;24.714;2022-11-15T14:21:11;-24157.38;;;12.19;nan
7105;BME280;3594;42.152;24.714;2022-11-15T14:23:37;-24155.53;;;12.12;nan
7105;BME280;3594;42.152;24.714;2022-11-15T14:26:02;-24151.03;;;11.96;nan
7105;BME280;3594;42.152;24.714;2022-11-15T14:28:30;-24142.00;;;11.64;nan
7105;BME280;3594;42.152;24.714;2022-11-15T14:30:59;-24143.69;;;11.70;nan
7105;BME280;3594;42.152;24.714;2022-11-15T14:33:29;-24142.84;;;11.67;nan
7105;BME280;3594;42.152;24.714;2022-11-15T14:35:56;-24130.03;;;11.21;nan
7105;BME280;3594;42.152;24.714;2022-11-15T14:38:23;-24125.94;;;11.06;nan
7105;BME280;3594;42.152;24.714;2022-11-15T14:40:49;-24132.28;;;11.29;nan
7105;BME280;3594;42.152;24.714;2022-11-15T14:43:15;-24125.66;;;11.05;nan
7105;BME280;3594;42.152;24.714;2022-11-15T14:45:41;-24122.28;;;10.93;nan
7105;BME280;3594;42.152;24.714;2022-11-15T14:48:06;-24128.47;;;11.15;nan
7105;BME280;3594;42.152;24.714;2022-11-15T14:50:33;-24124.25;;;11.00;nan
7105;BME280;3594;42.152;24.714;2022-11-15T14:52:59;-24125.09;;;11.03;nan
7105;BME280;3594;42.152;24.714;2022-11-15T14:55:30;-24121.72;;;10.91;nan
7105;BME280;3594;42.152;24.714;2022-11-15T14:58:00;-24076.09;;;9.27;nan
7105;BME280;3594;42.152;24.714;2022-11-15T15:00:28;-24113.41;;;10.61;nan
7105;BME280;3594;42.152;24.714;2022-11-15T15:02:54;-24113.53;;;10.61;nan
7105;BME280;3594;42.152;24.714;2022-11-15T15:05:25;-24112.81;;;10.59;nan
7105;BME280;3594;42.152;24.714;2022-11-15T15:07:51;-24118.19;;;10.78;nan
7105;BME280;3594;42.152;24.714;2022-11-15T15:10:18;-24083.47;;;9.54;nan
7105;BME280;3594;42.152;24.714;2022-11-15T15:12:44;-24119.59;;;10.83;nan
7105;BME280;3594;42.152;24.714;2022-11-15T15:15:15;-24108.16;;;10.42;nan
7105;BME280;3594;42.152;24.714;2022-11-15T15:17:40;-24104.22;;;10.28;nan
7105;BME280;3594;42.152;24.714;2022-11-15T15:20:06;-24110.28;;;10.50;nan
7105;BME280;3594;42.152;24.714;2022-11-15T15:22:32;-24105.34;;;10.32;nan
7105;BME280;3594;42.152;24.714;2022-11-15T15:24:57;-24098.56;;;10.08;nan
7105;BME280;3594;42.152;24.714;2022-11-15T15:27:23;-24096.16;;;9.99;nan
7105;BME280;3594;42.152;24.714;2022-11-15T15:29:48;-24105.91;;;10.34;nan
7105;BME280;3594;42.152;24.714;2022-11-15T15:32:14;-24101.97;;;10.20;nan
7105;BME280;3594;42.152;24.714;2022-11-15T15:34:39;-24091.22;;;9.82;nan
7105;BME280;3594;42.152;24.714;2022-11-15T15:39:34;-24092.34;;;9.86;nan
7105;BME280;3594;42.152;24.714;2022-11-15T15:42:00;-24098.84;;;10.09;nan
7105;BME280;3594;42.152;24.714;2022-11-15T15:44:25;-24097.16;;;10.03;nan
7105;BME280;3594;42.152;24.714;2022-11-15T15:46:50;-24091.66;;;9.83;nan
7105;BME280;3594;42.152;24.714;2022-11-15T15:49:16;-24087.41;;;9.68;nan
7105;BME280;3594;42.152;24.714;2022-11-15T15:51:41;-24077.38;;;9.32;nan
7105;BME280;3594;42.152;24.714;2022-11-15T15:54:07;-24084.72;;;9.58;nan
7105;BME280;3594;42.152;24.714;2022-11-15T15:56:32;-24080.91;;;9.45;nan